sensor_id;sensor_type;location;lat;lon;timestamp;P1;durP1;ratioP1;P2;durP2;ratioP2
67132;SDS011;54052;53.542;49.408;2023-03-23T00:01:10;10.20;;;6.03;;
67132;SDS011;54052;53.542;49.408;2023-03-23T00:03:46;12.45;;;6.47;;
67132;SDS011;54052;53.542;49.408;2023-03-23T00:06:14;13.93;;;6.57;;
67132;SDS011;54052;53.542;49.408;2023-03-23T00:08:44;17.63;;;6.88;;
67132;SDS011;54052;53.542;49.408;2023-03-23T00:11:13;8.57;;;5.78;;
67132;SDS011;54052;53.542;49.408;2023-03-23T00:13:41;14.20;;;6.53;;
67132;SDS011;54052;53.542;49.408;2023-03-23T00:16:08;11.80;;;6.00;;
67132;SDS011;54052;53.542;49.408;2023-03-23T00:18:48;15.65;;;5.63;;
67132;SDS011;54052;53.542;49.408;2023-03-23T00:21:20;11.02;;;6.30;;
67132;SDS011;54052;53.542;49.408;2023-03-23T00:23:51;16.08;;;6.22;;
67132;SDS011;54052;53.542;49.408;2023-03-23T00:26:18;16.40;;;6.22;;
67132;SDS011;54052;53.542;49.408;2023-03-23T00:28:44;11.98;;;6.05;;
67132;SDS011;54052;53.542;49.408;2023-03-23T00:31:12;9.80;;;5.30;;
67132;SDS011;54052;53.542;49.408;2023-03-23T00:33:39;19.92;;;5.85;;
67132;SDS011;54052;53.542;49.408;2023-03-23T00:36:09;11.60;;;6.18;;
67132;SDS011;54052;53.542;49.408;2023-03-23T00:38:37;14.00;;;5.93;;
67132;SDS011;54052;53.542;49.408;2023-03-23T00:41:05;9.98;;;6.05;;
67132;SDS011;54052;53.542;49.408;2023-03-23T00:43:32;10.98;;;5.70;;
67132;SDS011;54052;53.542;49.408;2023-03-23T00:46:02;13.80;;;5.22;;
67132;SDS011;54052;53.542;49.408;2023-03-23T00:48:34;11.40;;;5.13;;
67132;SDS011;54052;53.542;49.408;2023-03-23T00:51:10;9.80;;;5.45;;
67132;SDS011;54052;53.542;49.408;2023-03-23T00:53:38;10.27;;;5.57;;
67132;SDS011;54052;53.542;49.408;2023-03-23T00:56:05;12.70;;;5.75;;
67132;SDS011;54052;53.542;49.408;2023-03-23T00:58:32;13.75;;;6.28;;
67132;SDS011;54052;53.542;49.408;2023-03-23T01:00:59;11.05;;;5.25;;
67132;SDS011;54052;53.542;49.408;2023-03-23T01:03:26;11.60;;;4.95;;
67132;SDS011;54052;53.542;49.408;2023-03-23T01:05:54;9.77;;;5.72;;
67132;SDS011;54052;53.542;49.408;2023-03-23T01:08:21;20.05;;;5.38;;
67132;SDS011;54052;53.542;49.408;2023-03-23T01:10:49;14.35;;;5.78;;
67132;SDS011;54052;53.542;49.408;2023-03-23T01:13:16;16.27;;;4.70;;
67132;SDS011;54052;53.542;49.408;2023-03-23T01:15:43;14.98;;;5.60;;
67132;SDS011;54052;53.542;49.408;2023-03-23T01:18:09;13.93;;;5.25;;
67132;SDS011;54052;53.542;49.408;2023-03-23T01:20:36;8.93;;;5.55;;
67132;SDS011;54052;53.542;49.408;2023-03-23T01:23:03;21.10;;;6.18;;
67132;SDS011;54052;53.542;49.408;2023-03-23T01:25:31;18.42;;;6.35;;
67132;SDS011;54052;53.542;49.408;2023-03-23T01:28:01;17.15;;;5.75;;
67132;SDS011;54052;53.542;49.408;2023-03-23T01:30:27;18.98;;;6.38;;
67132;SDS011;54052;53.542;49.408;2023-03-23T01:32:54;10.45;;;6.28;;
67132;SDS011;54052;53.542;49.408;2023-03-23T01:35:21;22.73;;;6.50;;
67132;SDS011;54052;53.542;49.408;2023-03-23T01:37:47;17.02;;;6.57;;
67132;SDS011;54052;53.542;49.408;2023-03-23T01:40:14;15.93;;;5.85;;
67132;SDS011;54052;53.542;49.408;2023-03-23T01:42:41;12.65;;;5.22;;
67132;SDS011;54052;53.542;49.408;2023-03-23T01:47:49;14.23;;;6.22;;
67132;SDS011;54052;53.542;49.408;2023-03-23T01:50:38;13.25;;;6.13;;
67132;SDS011;54052;53.542;49.408;2023-03-23T01:53:11;19.08;;;7.20;;
67132;SDS011;54052;53.542;49.408;2023-03-23T01:55:38;14.50;;;7.45;;
67132;SDS011;54052;53.542;49.408;2023-03-23T01:58:07;19.60;;;7.97;;
67132;SDS011;54052;53.542;49.408;2023-03-23T02:00:35;20.70;;;7.97;;
67132;SDS011;54052;53.542;49.408;2023-03-23T02:03:02;20.00;;;8.15;;
67132;SDS011;54052;53.542;49.408;2023-03-23T02:05:30;21.40;;;10.82;;
67132;SDS011;54052;53.542;49.408;2023-03-23T02:08:00;20.00;;;7.75;;
67132;SDS011;54052;53.542;49.408;2023-03-23T02:10:31;20.75;;;8.10;;
67132;SDS011;54052;53.542;49.408;2023-03-23T02:12:59;16.95;;;7.40;;
67132;SDS011;54052;53.542;49.408;2023-03-23T02:15:30;16.35;;;7.47;;
67132;SDS011;54052;53.542;49.408;2023-03-23T02:18:15;16.35;;;8.45;;
67132;SDS011;54052;53.542;49.408;2023-03-23T02:21:25;19.92;;;8.07;;
67132;SDS011;54052;53.542;49.408;2023-03-23T02:26:58;18.40;;;8.35;;
67132;SDS011;54052;53.542;49.408;2023-03-23T02:34:44;18.02;;;8.70;;
67132;SDS011;54052;53.542;49.408;2023-03-23T02:40:09;13.52;;;7.38;;
67132;SDS011;54052;53.542;49.408;2023-03-23T02:42:45;13.20;;;7.35;;
67132;SDS011;54052;53.542;49.408;2023-03-23T02:45:15;11.98;;;6.45;;
67132;SDS011;54052;53.542;49.408;2023-03-23T02:47:45;21.45;;;7.07;;
67132;SDS011;54052;53.542;49.408;2023-03-23T02:50:14;19.63;;;7.40;;
67132;SDS011;54052;53.542;49.408;2023-03-23T02:52:42;13.93;;;5.75;;
67132;SDS011;54052;53.542;49.408;2023-03-23T02:55:10;16.70;;;6.60;;
67132;SDS011;54052;53.542;49.408;2023-03-23T02:57:39;22.52;;;6.45;;
67132;SDS011;54052;53.542;49.408;2023-03-23T03:00:07;19.10;;;6.72;;
67132;SDS011;54052;53.542;49.408;2023-03-23T03:02:43;14.10;;;6.55;;
67132;SDS011;54052;53.542;49.408;2023-03-23T03:05:24;14.60;;;6.65;;
67132;SDS011;54052;53.542;49.408;2023-03-23T03:16:00;21.67;;;4.93;;
67132;SDS011;54052;53.542;49.408;2023-03-23T03:18:54;9.85;;;3.80;;
67132;SDS011;54052;53.542;49.408;2023-03-23T03:21:27;11.93;;;3.97;;
67132;SDS011;54052;53.542;49.408;2023-03-23T03:23:56;7.05;;;3.33;;
67132;SDS011;54052;53.542;49.408;2023-03-23T03:26:26;11.90;;;4.05;;
67132;SDS011;54052;53.542;49.408;2023-03-23T03:28:54;10.90;;;4.28;;
67132;SDS011;54052;53.542;49.408;2023-03-23T03:31:26;9.85;;;3.75;;
67132;SDS011;54052;53.542;49.408;2023-03-23T03:33:58;9.70;;;3.80;;
67132;SDS011;54052;53.542;49.408;2023-03-23T03:36:31;21.08;;;4.72;;
67132;SDS011;54052;53.542;49.408;2023-03-23T03:39:04;14.60;;;3.88;;
67132;SDS011;54052;53.542;49.408;2023-03-23T03:44:03;13.38;;;3.50;;
67132;SDS011;54052;53.542;49.408;2023-03-23T03:46:31;10.15;;;4.20;;
67132;SDS011;54052;53.542;49.408;2023-03-23T03:48:57;19.63;;;3.58;;
67132;SDS011;54052;53.542;49.408;2023-03-23T03:51:25;12.05;;;5.38;;
67132;SDS011;54052;53.542;49.408;2023-03-23T03:53:52;8.18;;;3.80;;
67132;SDS011;54052;53.542;49.408;2023-03-23T03:56:19;28.38;;;4.15;;
67132;SDS011;54052;53.542;49.408;2023-03-23T03:58:48;13.32;;;4.10;;
67132;SDS011;54052;53.542;49.408;2023-03-23T04:01:19;15.30;;;3.70;;
67132;SDS011;54052;53.542;49.408;2023-03-23T04:03:49;16.50;;;4.13;;
67132;SDS011;54052;53.542;49.408;2023-03-23T04:06:16;12.02;;;3.90;;
67132;SDS011;54052;53.542;49.408;2023-03-23T04:08:43;10.05;;;3.10;;
67132;SDS011;54052;53.542;49.408;2023-03-23T04:11:11;16.00;;;3.50;;
67132;SDS011;54052;53.542;49.408;2023-03-23T04:13:42;19.20;;;3.78;;
67132;SDS011;54052;53.542;49.408;2023-03-23T04:16:08;33.28;;;4.53;;
67132;SDS011;54052;53.542;49.408;2023-03-23T04:18:34;19.52;;;3.65;;
67132;SDS011;54052;53.542;49.408;2023-03-23T04:21:02;8.57;;;3.35;;
67132;SDS011;54052;53.542;49.408;2023-03-23T04:23:30;21.35;;;3.35;;
67132;SDS011;54052;53.542;49.408;2023-03-23T04:25:59;8.07;;;3.15;;
67132;SDS011;54052;53.542;49.408;2023-03-23T04:28:26;20.00;;;3.50;;
67132;SDS011;54052;53.542;49.408;2023-03-23T04:30:53;26.10;;;3.90;;
67132;SDS011;54052;53.542;49.408;2023-03-23T04:33:24;18.90;;;4.20;;
67132;SDS011;54052;53.542;49.408;2023-03-23T04:35:52;19.92;;;4.80;;
67132;SDS011;54052;53.542;49.408;2023-03-23T04:38:20;16.52;;;6.40;;
67132;SDS011;54052;53.542;49.408;2023-03-23T04:40:49;18.75;;;5.15;;
67132;SDS011;54052;53.542;49.408;2023-03-23T04:43:18;13.63;;;3.50;;
67132;SDS011;54052;53.542;49.408;2023-03-23T04:45:47;16.70;;;3.22;;
67132;SDS011;54052;53.542;49.408;2023-03-23T04:48:22;6.38;;;3.55;;
67132;SDS011;54052;53.542;49.408;2023-03-23T04:50:49;7.95;;;3.22;;
67132;SDS011;54052;53.542;49.408;2023-03-23T04:53:17;17.45;;;3.47;;
67132;SDS011;54052;53.542;49.408;2023-03-23T04:55:44;17.20;;;3.53;;
67132;SDS011;54052;53.542;49.408;2023-03-23T04:58:13;14.23;;;3.20;;
67132;SDS011;54052;53.542;49.408;2023-03-23T05:00:40;20.23;;;3.33;;
67132;SDS011;54052;53.542;49.408;2023-03-23T05:03:09;25.88;;;3.78;;
67132;SDS011;54052;53.542;49.408;2023-03-23T05:05:36;9.80;;;3.13;;
67132;SDS011;54052;53.542;49.408;2023-03-23T05:08:03;10.27;;;3.40;;
67132;SDS011;54052;53.542;49.408;2023-03-23T05:10:29;16.17;;;3.83;;
67132;SDS011;54052;53.542;49.408;2023-03-23T05:12:56;8.98;;;2.88;;
67132;SDS011;54052;53.542;49.408;2023-03-23T05:15:22;10.13;;;3.58;;
67132;SDS011;54052;53.542;49.408;2023-03-23T05:17:50;20.88;;;3.58;;
67132;SDS011;54052;53.542;49.408;2023-03-23T05:20:17;16.55;;;4.13;;
67132;SDS011;54052;53.542;49.408;2023-03-23T05:22:46;12.90;;;3.72;;
67132;SDS011;54052;53.542;49.408;2023-03-23T05:25:16;11.88;;;3.10;;
67132;SDS011;54052;53.542;49.408;2023-03-23T05:27:46;19.30;;;3.22;;
67132;SDS011;54052;53.542;49.408;2023-03-23T05:30:18;9.07;;;3.10;;
67132;SDS011;54052;53.542;49.408;2023-03-23T05:32:47;28.98;;;2.95;;
67132;SDS011;54052;53.542;49.408;2023-03-23T05:35:16;27.73;;;3.35;;
67132;SDS011;54052;53.542;49.408;2023-03-23T05:37:43;31.48;;;3.42;;
67132;SDS011;54052;53.542;49.408;2023-03-23T05:40:10;20.13;;;2.88;;
67132;SDS011;54052;53.542;49.408;2023-03-23T05:42:38;19.23;;;2.75;;
67132;SDS011;54052;53.542;49.408;2023-03-23T05:45:08;14.20;;;2.83;;
67132;SDS011;54052;53.542;49.408;2023-03-23T05:47:37;12.40;;;3.42;;
67132;SDS011;54052;53.542;49.408;2023-03-23T05:50:08;8.85;;;3.17;;
67132;SDS011;54052;53.542;49.408;2023-03-23T05:52:35;9.60;;;3.00;;
67132;SDS011;54052;53.542;49.408;2023-03-23T05:55:02;12.27;;;3.15;;
67132;SDS011;54052;53.542;49.408;2023-03-23T05:57:30;15.13;;;2.95;;
67132;SDS011;54052;53.542;49.408;2023-03-23T05:59:57;19.67;;;3.38;;
67132;SDS011;54052;53.542;49.408;2023-03-23T06:02:24;8.32;;;2.80;;
67132;SDS011;54052;53.542;49.408;2023-03-23T06:04:54;15.75;;;2.95;;
67132;SDS011;54052;53.542;49.408;2023-03-23T06:07:26;6.78;;;3.63;;
67132;SDS011;54052;53.542;49.408;2023-03-23T06:09:52;6.40;;;3.53;;
67132;SDS011;54052;53.542;49.408;2023-03-23T06:12:19;7.05;;;3.13;;
67132;SDS011;54052;53.542;49.408;2023-03-23T06:14:46;11.63;;;2.97;;
67132;SDS011;54052;53.542;49.408;2023-03-23T06:17:16;11.10;;;3.30;;
67132;SDS011;54052;53.542;49.408;2023-03-23T06:19:43;8.32;;;3.72;;
67132;SDS011;54052;53.542;49.408;2023-03-23T06:22:12;10.77;;;3.47;;
67132;SDS011;54052;53.542;49.408;2023-03-23T06:24:39;11.65;;;3.60;;
67132;SDS011;54052;53.542;49.408;2023-03-23T06:27:05;14.30;;;3.70;;
67132;SDS011;54052;53.542;49.408;2023-03-23T06:29:31;10.68;;;3.05;;
67132;SDS011;54052;53.542;49.408;2023-03-23T06:31:58;17.15;;;3.20;;
67132;SDS011;54052;53.542;49.408;2023-03-23T06:34:27;7.30;;;2.97;;
67132;SDS011;54052;53.542;49.408;2023-03-23T06:36:54;6.50;;;2.42;;
67132;SDS011;54052;53.542;49.408;2023-03-23T06:39:21;7.97;;;2.63;;
67132;SDS011;54052;53.542;49.408;2023-03-23T06:41:48;15.80;;;4.07;;
67132;SDS011;54052;53.542;49.408;2023-03-23T06:44:15;15.95;;;4.03;;
67132;SDS011;54052;53.542;49.408;2023-03-23T06:46:41;23.50;;;3.95;;
67132;SDS011;54052;53.542;49.408;2023-03-23T06:49:09;44.38;;;4.68;;
67132;SDS011;54052;53.542;49.408;2023-03-23T06:51:35;10.35;;;4.53;;
67132;SDS011;54052;53.542;49.408;2023-03-23T06:54:03;15.88;;;3.92;;
67132;SDS011;54052;53.542;49.408;2023-03-23T06:56:30;14.95;;;2.67;;
67132;SDS011;54052;53.542;49.408;2023-03-23T06:58:56;9.98;;;2.50;;
67132;SDS011;54052;53.542;49.408;2023-03-23T07:01:23;18.25;;;3.08;;
67132;SDS011;54052;53.542;49.408;2023-03-23T07:03:49;5.38;;;1.67;;
67132;SDS011;54052;53.542;49.408;2023-03-23T07:06:16;1.65;;;1.15;;
67132;SDS011;54052;53.542;49.408;2023-03-23T07:08:42;4.78;;;1.00;;
67132;SDS011;54052;53.542;49.408;2023-03-23T07:11:08;7.78;;;1.55;;
67132;SDS011;54052;53.542;49.408;2023-03-23T07:13:36;7.30;;;1.17;;
67132;SDS011;54052;53.542;49.408;2023-03-23T07:16:04;2.85;;;1.02;;
67132;SDS011;54052;53.542;49.408;2023-03-23T07:18:32;2.05;;;0.82;;
67132;SDS011;54052;53.542;49.408;2023-03-23T07:20:58;2.30;;;1.05;;
67132;SDS011;54052;53.542;49.408;2023-03-23T07:23:25;5.47;;;0.75;;
67132;SDS011;54052;53.542;49.408;2023-03-23T07:25:52;8.43;;;0.90;;
67132;SDS011;54052;53.542;49.408;2023-03-23T07:28:19;3.10;;;0.80;;
67132;SDS011;54052;53.542;49.408;2023-03-23T07:30:45;2.80;;;0.70;;
67132;SDS011;54052;53.542;49.408;2023-03-23T07:33:12;4.72;;;1.23;;
67132;SDS011;54052;53.542;49.408;2023-03-23T07:35:38;8.18;;;1.65;;
67132;SDS011;54052;53.542;49.408;2023-03-23T07:38:05;94.80;;;4.35;;
67132;SDS011;54052;53.542;49.408;2023-03-23T07:40:32;10.05;;;1.10;;
67132;SDS011;54052;53.542;49.408;2023-03-23T07:42:59;2.58;;;1.00;;
67132;SDS011;54052;53.542;49.408;2023-03-23T07:45:27;4.63;;;1.02;;
67132;SDS011;54052;53.542;49.408;2023-03-23T07:47:53;5.43;;;1.02;;
67132;SDS011;54052;53.542;49.408;2023-03-23T07:50:21;2.13;;;0.90;;
67132;SDS011;54052;53.542;49.408;2023-03-23T07:52:50;4.03;;;1.10;;
67132;SDS011;54052;53.542;49.408;2023-03-23T07:55:19;3.75;;;1.10;;
67132;SDS011;54052;53.542;49.408;2023-03-23T07:57:48;5.18;;;1.05;;
67132;SDS011;54052;53.542;49.408;2023-03-23T08:00:15;8.57;;;1.30;;
67132;SDS011;54052;53.542;49.408;2023-03-23T08:02:46;3.88;;;1.08;;
67132;SDS011;54052;53.542;49.408;2023-03-23T08:05:14;6.18;;;1.25;;
67132;SDS011;54052;53.542;49.408;2023-03-23T08:07:41;13.32;;;1.08;;
67132;SDS011;54052;53.542;49.408;2023-03-23T08:10:09;2.22;;;1.27;;
67132;SDS011;54052;53.542;49.408;2023-03-23T08:12:36;6.40;;;1.60;;
67132;SDS011;54052;53.542;49.408;2023-03-23T08:15:05;2.15;;;1.10;;
67132;SDS011;54052;53.542;49.408;2023-03-23T08:17:32;18.98;;;1.42;;
67132;SDS011;54052;53.542;49.408;2023-03-23T08:20:00;8.48;;;1.40;;
67132;SDS011;54052;53.542;49.408;2023-03-23T08:22:27;8.82;;;1.60;;
67132;SDS011;54052;53.542;49.408;2023-03-23T08:24:55;5.32;;;1.40;;
67132;SDS011;54052;53.542;49.408;2023-03-23T08:27:21;2.00;;;1.38;;
67132;SDS011;54052;53.542;49.408;2023-03-23T08:29:47;5.97;;;1.73;;
67132;SDS011;54052;53.542;49.408;2023-03-23T08:32:14;10.50;;;1.52;;
67132;SDS011;54052;53.542;49.408;2023-03-23T08:34:40;9.23;;;1.40;;
67132;SDS011;54052;53.542;49.408;2023-03-23T08:37:07;7.50;;;1.60;;
67132;SDS011;54052;53.542;49.408;2023-03-23T08:39:34;5.55;;;1.58;;
67132;SDS011;54052;53.542;49.408;2023-03-23T08:42:01;3.28;;;1.42;;
67132;SDS011;54052;53.542;49.408;2023-03-23T08:44:29;11.20;;;1.50;;
67132;SDS011;54052;53.542;49.408;2023-03-23T08:46:55;10.30;;;1.27;;
67132;SDS011;54052;53.542;49.408;2023-03-23T08:49:23;18.88;;;2.28;;
67132;SDS011;54052;53.542;49.408;2023-03-23T08:51:50;24.77;;;2.05;;
67132;SDS011;54052;53.542;49.408;2023-03-23T08:54:17;7.28;;;1.65;;
67132;SDS011;54052;53.542;49.408;2023-03-23T08:56:43;10.60;;;2.38;;
67132;SDS011;54052;53.542;49.408;2023-03-23T08:59:09;5.22;;;2.28;;
67132;SDS011;54052;53.542;49.408;2023-03-23T09:01:36;12.27;;;2.20;;
67132;SDS011;54052;53.542;49.408;2023-03-23T09:04:03;26.10;;;2.97;;
67132;SDS011;54052;53.542;49.408;2023-03-23T09:06:30;12.80;;;1.75;;
67132;SDS011;54052;53.542;49.408;2023-03-23T09:08:56;4.90;;;1.67;;
67132;SDS011;54052;53.542;49.408;2023-03-23T09:11:23;6.30;;;1.75;;
67132;SDS011;54052;53.542;49.408;2023-03-23T09:13:53;8.65;;;1.17;;
67132;SDS011;54052;53.542;49.408;2023-03-23T09:16:19;3.97;;;1.67;;
67132;SDS011;54052;53.542;49.408;2023-03-23T09:18:45;6.80;;;2.15;;
67132;SDS011;54052;53.542;49.408;2023-03-23T09:21:12;7.53;;;1.73;;
67132;SDS011;54052;53.542;49.408;2023-03-23T09:23:38;15.80;;;2.13;;
67132;SDS011;54052;53.542;49.408;2023-03-23T09:26:07;4.93;;;1.45;;
67132;SDS011;54052;53.542;49.408;2023-03-23T09:28:33;55.92;;;3.15;;
67132;SDS011;54052;53.542;49.408;2023-03-23T09:31:00;9.45;;;2.08;;
67132;SDS011;54052;53.542;49.408;2023-03-23T09:33:26;7.63;;;2.25;;
67132;SDS011;54052;53.542;49.408;2023-03-23T09:35:58;5.00;;;2.22;;
67132;SDS011;54052;53.542;49.408;2023-03-23T09:38:24;14.63;;;2.10;;
67132;SDS011;54052;53.542;49.408;2023-03-23T09:40:54;14.13;;;3.05;;
67132;SDS011;54052;53.542;49.408;2023-03-23T09:46:10;2.83;;;1.60;;
67132;SDS011;54052;53.542;49.408;2023-03-23T09:49:08;6.13;;;1.70;;
67132;SDS011;54052;53.542;49.408;2023-03-23T09:56:57;4.43;;;1.95;;
67132;SDS011;54052;53.542;49.408;2023-03-23T09:59:27;4.13;;;2.10;;
67132;SDS011;54052;53.542;49.408;2023-03-23T10:02:27;11.82;;;1.52;;
67132;SDS011;54052;53.542;49.408;2023-03-23T10:05:04;8.07;;;2.00;;
67132;SDS011;54052;53.542;49.408;2023-03-23T10:07:40;8.57;;;2.40;;
67132;SDS011;54052;53.542;49.408;2023-03-23T10:10:08;22.38;;;2.85;;
67132;SDS011;54052;53.542;49.408;2023-03-23T10:12:42;17.88;;;2.17;;
67132;SDS011;54052;53.542;49.408;2023-03-23T10:15:33;4.25;;;2.15;;
67132;SDS011;54052;53.542;49.408;2023-03-23T10:18:14;5.72;;;2.25;;
67132;SDS011;54052;53.542;49.408;2023-03-23T10:21:01;20.55;;;2.38;;
67132;SDS011;54052;53.542;49.408;2023-03-23T10:23:35;12.80;;;2.50;;
67132;SDS011;54052;53.542;49.408;2023-03-23T10:34:50;11.80;;;2.05;;
67132;SDS011;54052;53.542;49.408;2023-03-23T10:39:55;11.98;;;3.00;;
67132;SDS011;54052;53.542;49.408;2023-03-23T10:44:55;9.35;;;1.92;;
67132;SDS011;54052;53.542;49.408;2023-03-23T10:47:22;7.28;;;1.95;;
67132;SDS011;54052;53.542;49.408;2023-03-23T10:49:54;4.03;;;1.70;;
67132;SDS011;54052;53.542;49.408;2023-03-23T10:52:40;28.83;;;3.03;;
67132;SDS011;54052;53.542;49.408;2023-03-23T10:57:41;14.10;;;2.70;;
67132;SDS011;54052;53.542;49.408;2023-03-23T11:00:17;7.45;;;2.60;;
67132;SDS011;54052;53.542;49.408;2023-03-23T11:02:59;20.15;;;3.15;;
67132;SDS011;54052;53.542;49.408;2023-03-23T11:05:27;5.97;;;2.55;;
67132;SDS011;54052;53.542;49.408;2023-03-23T11:08:13;12.15;;;2.83;;
67132;SDS011;54052;53.542;49.408;2023-03-23T11:10:49;16.20;;;2.60;;
67132;SDS011;54052;53.542;49.408;2023-03-23T11:13:19;14.80;;;2.25;;
67132;SDS011;54052;53.542;49.408;2023-03-23T11:15:48;6.53;;;2.60;;
67132;SDS011;54052;53.542;49.408;2023-03-23T11:18:23;8.38;;;3.28;;
67132;SDS011;54052;53.542;49.408;2023-03-23T11:20:53;9.52;;;3.13;;
67132;SDS011;54052;53.542;49.408;2023-03-23T11:26:14;11.90;;;3.42;;
67132;SDS011;54052;53.542;49.408;2023-03-23T11:31:44;13.50;;;3.22;;
67132;SDS011;54052;53.542;49.408;2023-03-23T11:34:21;7.07;;;3.80;;
67132;SDS011;54052;53.542;49.408;2023-03-23T11:36:53;6.70;;;3.03;;
67132;SDS011;54052;53.542;49.408;2023-03-23T11:39:28;27.63;;;4.47;;
67132;SDS011;54052;53.542;49.408;2023-03-23T11:42:00;17.13;;;4.10;;
67132;SDS011;54052;53.542;49.408;2023-03-23T11:44:41;13.55;;;3.92;;
67132;SDS011;54052;53.542;49.408;2023-03-23T11:50:22;50.95;;;5.32;;
67132;SDS011;54052;53.542;49.408;2023-03-23T11:53:29;13.05;;;3.05;;
67132;SDS011;54052;53.542;49.408;2023-03-23T11:58:37;5.70;;;2.90;;
67132;SDS011;54052;53.542;49.408;2023-03-23T12:07:09;7.15;;;3.05;;
67132;SDS011;54052;53.542;49.408;2023-03-23T12:10:13;6.45;;;3.10;;
67132;SDS011;54052;53.542;49.408;2023-03-23T12:24:24;21.97;;;4.40;;
67132;SDS011;54052;53.542;49.408;2023-03-23T12:32:28;11.57;;;4.63;;
67132;SDS011;54052;53.542;49.408;2023-03-23T12:35:23;9.88;;;4.50;;
67132;SDS011;54052;53.542;49.408;2023-03-23T12:40:51;8.65;;;4.93;;
67132;SDS011;54052;53.542;49.408;2023-03-23T12:48:28;84.55;;;7.55;;
67132;SDS011;54052;53.542;49.408;2023-03-23T12:53:26;15.85;;;5.40;;
67132;SDS011;54052;53.542;49.408;2023-03-23T12:58:50;13.23;;;5.55;;
67132;SDS011;54052;53.542;49.408;2023-03-23T13:01:24;13.85;;;4.88;;
67132;SDS011;54052;53.542;49.408;2023-03-23T13:06:39;19.45;;;5.85;;
67132;SDS011;54052;53.542;49.408;2023-03-23T13:11:43;16.83;;;5.30;;
67132;SDS011;54052;53.542;49.408;2023-03-23T13:14:26;15.65;;;4.80;;
67132;SDS011;54052;53.542;49.408;2023-03-23T13:20:33;21.27;;;5.75;;
67132;SDS011;54052;53.542;49.408;2023-03-23T13:23:23;32.58;;;7.68;;
67132;SDS011;54052;53.542;49.408;2023-03-23T13:28:31;20.23;;;7.20;;
67132;SDS011;54052;53.542;49.408;2023-03-23T13:31:13;35.75;;;7.05;;
67132;SDS011;54052;53.542;49.408;2023-03-23T13:33:46;24.42;;;9.93;;
67132;SDS011;54052;53.542;49.408;2023-03-23T13:36:15;31.58;;;8.63;;
67132;SDS011;54052;53.542;49.408;2023-03-23T13:38:50;25.55;;;8.05;;
67132;SDS011;54052;53.542;49.408;2023-03-23T13:41:17;40.47;;;14.30;;
67132;SDS011;54052;53.542;49.408;2023-03-23T13:43:47;28.20;;;6.63;;
67132;SDS011;54052;53.542;49.408;2023-03-23T13:51:24;30.35;;;7.95;;
67132;SDS011;54052;53.542;49.408;2023-03-23T13:53:51;35.00;;;8.00;;
67132;SDS011;54052;53.542;49.408;2023-03-23T13:56:31;19.65;;;6.55;;
67132;SDS011;54052;53.542;49.408;2023-03-23T13:59:06;36.55;;;8.00;;
67132;SDS011;54052;53.542;49.408;2023-03-23T14:01:34;25.55;;;6.63;;
67132;SDS011;54052;53.542;49.408;2023-03-23T14:04:05;36.50;;;8.02;;
67132;SDS011;54052;53.542;49.408;2023-03-23T14:06:40;16.15;;;6.90;;
67132;SDS011;54052;53.542;49.408;2023-03-23T14:09:10;32.42;;;8.98;;
67132;SDS011;54052;53.542;49.408;2023-03-23T14:11:49;41.90;;;9.73;;
67132;SDS011;54052;53.542;49.408;2023-03-23T14:14:25;19.17;;;6.47;;
67132;SDS011;54052;53.542;49.408;2023-03-23T14:17:06;28.00;;;8.13;;
67132;SDS011;54052;53.542;49.408;2023-03-23T14:19:33;51.75;;;8.43;;
67132;SDS011;54052;53.542;49.408;2023-03-23T14:22:04;45.80;;;8.60;;
67132;SDS011;54052;53.542;49.408;2023-03-23T14:24:42;43.60;;;8.48;;
67132;SDS011;54052;53.542;49.408;2023-03-23T14:29:36;34.03;;;8.27;;
67132;SDS011;54052;53.542;49.408;2023-03-23T14:32:05;24.63;;;9.32;;
67132;SDS011;54052;53.542;49.408;2023-03-23T14:34:33;37.47;;;10.85;;
67132;SDS011;54052;53.542;49.408;2023-03-23T14:37:00;39.35;;;9.95;;
67132;SDS011;54052;53.542;49.408;2023-03-23T14:39:29;41.75;;;9.50;;
67132;SDS011;54052;53.542;49.408;2023-03-23T14:42:04;35.92;;;8.70;;
67132;SDS011;54052;53.542;49.408;2023-03-23T14:44:39;42.33;;;7.85;;
67132;SDS011;54052;53.542;49.408;2023-03-23T14:47:16;30.60;;;8.27;;
67132;SDS011;54052;53.542;49.408;2023-03-23T14:49:52;38.63;;;8.25;;
67132;SDS011;54052;53.542;49.408;2023-03-23T14:52:21;54.67;;;9.23;;
67132;SDS011;54052;53.542;49.408;2023-03-23T14:54:50;39.25;;;9.25;;
67132;SDS011;54052;53.542;49.408;2023-03-23T14:57:17;37.05;;;9.63;;
67132;SDS011;54052;53.542;49.408;2023-03-23T14:59:46;31.02;;;8.80;;
67132;SDS011;54052;53.542;49.408;2023-03-23T15:02:17;28.85;;;7.90;;
67132;SDS011;54052;53.542;49.408;2023-03-23T15:04:45;33.13;;;6.97;;
67132;SDS011;54052;53.542;49.408;2023-03-23T15:07:14;22.42;;;6.20;;
67132;SDS011;54052;53.542;49.408;2023-03-23T15:09:44;19.73;;;6.25;;
67132;SDS011;54052;53.542;49.408;2023-03-23T15:12:29;25.40;;;6.70;;
67132;SDS011;54052;53.542;49.408;2023-03-23T15:14:57;30.17;;;7.47;;
67132;SDS011;54052;53.542;49.408;2023-03-23T15:17:28;49.78;;;8.70;;
67132;SDS011;54052;53.542;49.408;2023-03-23T15:19:57;19.10;;;7.25;;
67132;SDS011;54052;53.542;49.408;2023-03-23T15:22:32;32.35;;;7.00;;
67132;SDS011;54052;53.542;49.408;2023-03-23T15:27:40;35.72;;;8.13;;
67132;SDS011;54052;53.542;49.408;2023-03-23T15:33:12;33.63;;;7.57;;
67132;SDS011;54052;53.542;49.408;2023-03-23T15:35:49;27.65;;;6.40;;
67132;SDS011;54052;53.542;49.408;2023-03-23T15:38:23;19.30;;;7.28;;
67132;SDS011;54052;53.542;49.408;2023-03-23T15:40:53;35.80;;;6.85;;
67132;SDS011;54052;53.542;49.408;2023-03-23T15:43:22;16.02;;;6.38;;
67132;SDS011;54052;53.542;49.408;2023-03-23T15:46:19;35.70;;;5.78;;
67132;SDS011;54052;53.542;49.408;2023-03-23T15:51:21;16.50;;;5.75;;
67132;SDS011;54052;53.542;49.408;2023-03-23T15:53:52;13.48;;;5.13;;
67132;SDS011;54052;53.542;49.408;2023-03-23T15:56:20;12.77;;;5.97;;
67132;SDS011;54052;53.542;49.408;2023-03-23T15:58:46;10.57;;;5.78;;
67132;SDS011;54052;53.542;49.408;2023-03-23T16:01:14;8.57;;;5.22;;
67132;SDS011;54052;53.542;49.408;2023-03-23T16:03:53;11.13;;;5.10;;
67132;SDS011;54052;53.542;49.408;2023-03-23T16:06:46;14.77;;;5.68;;
67132;SDS011;54052;53.542;49.408;2023-03-23T16:09:14;13.60;;;6.05;;
67132;SDS011;54052;53.542;49.408;2023-03-23T16:11:41;19.65;;;5.97;;
67132;SDS011;54052;53.542;49.408;2023-03-23T16:14:08;17.58;;;4.80;;
67132;SDS011;54052;53.542;49.408;2023-03-23T16:16:39;19.42;;;5.15;;
67132;SDS011;54052;53.542;49.408;2023-03-23T16:19:12;13.57;;;4.22;;
67132;SDS011;54052;53.542;49.408;2023-03-23T16:21:39;14.15;;;5.55;;
67132;SDS011;54052;53.542;49.408;2023-03-23T16:24:06;20.42;;;5.88;;
67132;SDS011;54052;53.542;49.408;2023-03-23T16:26:34;20.35;;;5.03;;
67132;SDS011;54052;53.542;49.408;2023-03-23T16:29:02;18.63;;;5.47;;
67132;SDS011;54052;53.542;49.408;2023-03-23T16:31:36;9.80;;;4.72;;
67132;SDS011;54052;53.542;49.408;2023-03-23T16:34:02;12.18;;;4.65;;
67132;SDS011;54052;53.542;49.408;2023-03-23T16:36:28;18.65;;;5.35;;
67132;SDS011;54052;53.542;49.408;2023-03-23T16:38:54;46.55;;;6.22;;
67132;SDS011;54052;53.542;49.408;2023-03-23T16:41:21;11.05;;;6.05;;
67132;SDS011;54052;53.542;49.408;2023-03-23T16:43:47;11.15;;;5.65;;
67132;SDS011;54052;53.542;49.408;2023-03-23T16:46:13;12.52;;;5.45;;
67132;SDS011;54052;53.542;49.408;2023-03-23T16:48:40;33.53;;;5.40;;